Time;durP1;ratioP1;P1;durP2;ratioP2;P2;SDS_P1;SDS_P2;PMS_P1;PMS_P2;Temp;Humidity;BMP_temperature;BMP_pressure;BME280_temperature;BME280_humidity;BME280_pressure;Samples;Min_cycle;Max_cycle;Signal;HPM_P1;HPM_P2
2022/08/18 00:00:16;;;;;;;387.00;234.90;;;;;;;;;;4971628;28;20177;-51
2022/08/18 00:02:42;;;;;;;382.90;232.43;;;;;;;;;;4971451;28;20225;-51
2022/08/18 00:05:09;;;;;;;369.73;227.05;;;;;;;;;;4971768;28;20445;-51
2022/08/18 00:07:36;;;;;;;350.60;223.27;;;;;;;;;;4971508;28;20222;-51
2022/08/18 00:10:02;;;;;;;374.60;233.52;;;;;;;;;;4971077;28;20609;-51
2022/08/18 00:12:34;;;;;;;375.23;243.95;;;;;;;;;;4971765;28;20197;-51
2022/08/18 00:15:03;;;;;;;356.35;220.15;;;;;;;;;;4971470;28;20167;-51
2022/08/18 00:17:29;;;;;;;373.50;224.30;;;;;;;;;;4971079;28;20562;-51
2022/08/18 00:19:55;;;;;;;383.08;230.65;;;;;;;;;;4971127;28;20218;-51
2022/08/18 00:22:21;;;;;;;382.42;229.80;;;;;;;;;;4971253;28;20241;-50
2022/08/18 00:24:49;;;;;;;375.27;225.18;;;;;;;;;;4970609;28;20246;-51
2022/08/18 00:27:18;;;;;;;367.05;217.05;;;;;;;;;;4971351;28;20198;-51
2022/08/18 00:29:44;;;;;;;372.52;220.05;;;;;;;;;;4970930;28;20549;-51
2022/08/18 00:32:17;;;;;;;386.45;227.85;;;;;;;;;;4970597;28;20253;-51
2022/08/18 00:34:43;;;;;;;365.35;216.20;;;;;;;;;;4970923;28;20226;-51
2022/08/18 00:37:09;;;;;;;367.42;217.48;;;;;;;;;;4970711;28;20272;-51
2022/08/18 00:39:35;;;;;;;378.33;220.77;;;;;;;;;;4970503;28;20175;-51
2022/08/18 00:42:14;;;;;;;374.15;218.85;;;;;;;;;;4971104;28;20188;-51
2022/08/18 00:44:40;;;;;;;365.08;215.80;;;;;;;;;;4970388;28;20222;-50
2022/08/18 00:47:06;;;;;;;370.92;219.05;;;;;;;;;;4970201;28;20217;-51
2022/08/18 00:49:32;;;;;;;351.17;215.80;;;;;;;;;;4970696;28;20694;-51
2022/08/18 00:51:59;;;;;;;369.23;224.57;;;;;;;;;;4970778;28;20214;-51
2022/08/18 00:54:26;;;;;;;376.77;231.82;;;;;;;;;;4970667;28;20197;-51
2022/08/18 00:56:59;;;;;;;365.98;224.30;;;;;;;;;;4969462;28;20178;-51
2022/08/18 00:59:25;;;;;;;380.95;227.13;;;;;;;;;;4970211;28;20213;-51
2022/08/18 01:01:52;;;;;;;370.42;220.35;;;;;;;;;;4970255;28;20214;-51
2022/08/18 01:04:20;;;;;;;362.67;216.30;;;;;;;;;;4970330;28;20217;-51
2022/08/18 01:06:50;;;;;;;357.23;211.80;;;;;;;;;;4970453;28;20230;-51
2022/08/18 01:09:16;;;;;;;345.10;205.98;;;;;;;;;;4970248;28;20226;-51
2022/08/18 01:11:43;;;;;;;349.33;207.40;;;;;;;;;;4970068;28;20229;-51
2022/08/18 01:14:10;;;;;;;367.73;211.73;;;;;;;;;;4970095;28;20241;-51
2022/08/18 01:22:10;;;;;;;372.83;215.50;;;;;;;;;;4969872;28;20762;-50
2022/08/18 01:27:22;;;;;;;378.67;214.70;;;;;;;;;;4969847;28;20233;-51
2022/08/18 01:29:48;;;;;;;368.90;213.93;;;;;;;;;;4970275;28;20663;-51
2022/08/18 01:32:19;;;;;;;341.60;201.57;;;;;;;;;;4969588;28;20241;-51
2022/08/18 01:34:47;;;;;;;372.98;211.65;;;;;;;;;;4969846;28;20222;-51
2022/08/18 01:37:14;;;;;;;365.73;208.75;;;;;;;;;;4968456;28;20251;-51
2022/08/18 01:39:40;;;;;;;350.58;202.65;;;;;;;;;;4969983;28;20210;-51
2022/08/18 01:42:06;;;;;;;361.23;207.52;;;;;;;;;;4969949;28;20480;-51
2022/08/18 01:44:32;;;;;;;371.75;211.45;;;;;;;;;;4969752;28;20784;-51
2022/08/18 01:46:58;;;;;;;367.40;207.60;;;;;;;;;;4969995;28;20234;-51
2022/08/18 01:49:27;;;;;;;372.48;213.15;;;;;;;;;;4969518;28;20214;-50
2022/08/18 01:51:54;;;;;;;405.15;234.13;;;;;;;;;;4968465;28;20240;-51
2022/08/18 01:54:20;;;;;;;387.42;223.63;;;;;;;;;;4969414;28;20789;-51
2022/08/18 01:56:48;;;;;;;371.20;220.27;;;;;;;;;;4969765;28;20236;-51
2022/08/18 01:59:14;;;;;;;363.20;212.27;;;;;;;;;;4969649;28;20700;-51
2022/08/18 02:01:41;;;;;;;368.92;214.27;;;;;;;;;;4969473;28;20345;-50
2022/08/18 02:04:07;;;;;;;371.58;213.10;;;;;;;;;;4969716;28;20301;-51
2022/08/18 02:06:33;;;;;;;383.13;221.32;;;;;;;;;;4969404;28;20175;-51
2022/08/18 02:08:59;;;;;;;337.13;200.68;;;;;;;;;;4970081;28;20202;-51
2022/08/18 02:11:25;;;;;;;392.52;225.13;;;;;;;;;;4969329;28;20216;-50
2022/08/18 02:13:52;;;;;;;374.35;212.23;;;;;;;;;;4988909;28;20222;-50
2022/08/18 02:16:18;;;;;;;372.40;212.80;;;;;;;;;;4988764;28;20292;-51
2022/08/18 02:18:44;;;;;;;369.13;218.88;;;;;;;;;;4988855;28;20209;-51
2022/08/18 02:21:12;;;;;;;352.10;206.98;;;;;;;;;;4989655;28;20590;-51
2022/08/18 02:23:38;;;;;;;450.02;265.15;;;;;;;;;;4987020;23;20261;-50
2022/08/18 02:26:05;;;;;;;401.00;239.15;;;;;;;;;;4970597;28;20220;-49
2022/08/18 02:28:31;;;;;;;406.10;243.43;;;;;;;;;;4978235;28;20328;-50
2022/08/18 02:30:57;;;;;;;452.73;272.73;;;;;;;;;;4967730;28;20218;-49
2022/08/18 02:33:23;;;;;;;382.85;229.38;;;;;;;;;;4952678;28;20285;-49
2022/08/18 02:35:55;;;;;;;390.67;235.07;;;;;;;;;;4968802;28;20594;-49
2022/08/18 02:38:20;;;;;;;410.85;247.30;;;;;;;;;;4970237;28;20248;-49
2022/08/18 02:40:46;;;;;;;422.63;259.23;;;;;;;;;;4971156;28;20229;-50
2022/08/18 02:43:12;;;;;;;408.35;246.15;;;;;;;;;;4972949;28;20213;-50
2022/08/18 02:45:39;;;;;;;416.15;253.77;;;;;;;;;;4973281;28;20232;-49
2022/08/18 02:48:05;;;;;;;411.55;250.30;;;;;;;;;;4972474;28;20216;-49
2022/08/18 02:50:31;;;;;;;403.95;240.02;;;;;;;;;;4976544;28;20215;-49
2022/08/18 02:52:57;;;;;;;418.48;249.90;;;;;;;;;;4969666;28;20586;-49
2022/08/18 02:55:25;;;;;;;387.38;233.35;;;;;;;;;;4973613;28;20765;-50
2022/08/18 02:57:51;;;;;;;410.75;256.08;;;;;;;;;;4975929;28;20213;-50
2022/08/18 03:00:18;;;;;;;426.83;263.20;;;;;;;;;;4968603;28;20590;-49
2022/08/18 03:02:48;;;;;;;438.23;270.52;;;;;;;;;;4968815;28;20250;-49
2022/08/18 03:05:14;;;;;;;418.40;258.30;;;;;;;;;;4971267;28;20233;-50
2022/08/18 03:07:40;;;;;;;425.98;262.85;;;;;;;;;;4960398;28;20219;-50
2022/08/18 03:10:06;;;;;;;459.77;274.17;;;;;;;;;;4955925;28;20283;-50
2022/08/18 03:12:32;;;;;;;400.90;245.68;;;;;;;;;;4975094;28;20573;-50
2022/08/18 03:15:00;;;;;;;419.35;265.42;;;;;;;;;;4975728;28;20173;-49
2022/08/18 03:17:27;;;;;;;403.95;258.55;;;;;;;;;;4967048;28;20659;-50
2022/08/18 03:19:53;;;;;;;391.38;252.13;;;;;;;;;;4969567;28;20324;-49
2022/08/18 03:22:19;;;;;;;396.10;254.20;;;;;;;;;;4972801;28;20229;-49
2022/08/18 03:24:45;;;;;;;411.13;262.05;;;;;;;;;;4971841;28;20249;-50
2022/08/18 03:27:11;;;;;;;405.63;253.98;;;;;;;;;;4971095;28;20220;-49
2022/08/18 03:29:37;;;;;;;430.75;261.63;;;;;;;;;;4971362;28;20204;-50
2022/08/18 03:32:04;;;;;;;422.85;257.63;;;;;;;;;;4966024;28;20539;-50
2022/08/18 03:34:31;;;;;;;401.63;248.75;;;;;;;;;;4969394;28;20245;-48
2022/08/18 03:36:57;;;;;;;424.35;262.85;;;;;;;;;;4973343;28;20215;-49
2022/08/18 03:39:23;;;;;;;439.50;277.63;;;;;;;;;;4969588;28;20189;-50
2022/08/18 03:41:53;;;;;;;404.90;245.02;;;;;;;;;;4970663;28;20619;-50
2022/08/18 03:44:19;;;;;;;426.27;255.68;;;;;;;;;;4973037;28;20250;-49
2022/08/18 03:46:46;;;;;;;374.05;228.52;;;;;;;;;;4970808;28;20233;-50
2022/08/18 03:49:12;;;;;;;465.20;285.92;;;;;;;;;;4968644;28;20225;-50
2022/08/18 03:51:38;;;;;;;402.02;252.77;;;;;;;;;;4967663;28;20216;-50
2022/08/18 03:54:04;;;;;;;418.27;270.75;;;;;;;;;;4971860;28;22385;-50
2022/08/18 03:56:33;;;;;;;410.40;260.42;;;;;;;;;;4972689;28;20300;-50
2022/08/18 03:59:02;;;;;;;368.20;233.57;;;;;;;;;;4971395;28;20364;-50
2022/08/18 04:01:31;;;;;;;439.45;280.48;;;;;;;;;;4966824;28;20754;-50
2022/08/18 04:03:59;;;;;;;411.98;264.95;;;;;;;;;;4971295;28;20225;-50
2022/08/18 04:06:26;;;;;;;376.90;251.07;;;;;;;;;;4969020;28;20480;-50
2022/08/18 04:08:53;;;;;;;421.23;264.25;;;;;;;;;;4969877;28;20244;-49
2022/08/18 04:11:20;;;;;;;445.95;274.52;;;;;;;;;;4969263;28;20316;-50
2022/08/18 04:13:46;;;;;;;411.38;258.95;;;;;;;;;;4967886;28;20276;-50
2022/08/18 04:16:12;;;;;;;386.42;245.45;;;;;;;;;;4970714;28;20236;-50
2022/08/18 04:18:38;;;;;;;434.73;266.23;;;;;;;;;;4966212;28;20283;-50
2022/08/18 04:21:06;;;;;;;399.27;254.60;;;;;;;;;;4967688;28;20185;-49
2022/08/18 04:23:33;;;;;;;423.45;266.90;;;;;;;;;;4965410;28;20312;-50
2022/08/18 04:26:00;;;;;;;461.23;287.52;;;;;;;;;;4964588;28;20254;-50
2022/08/18 04:28:27;;;;;;;392.90;255.98;;;;;;;;;;4972930;28;20359;-51
2022/08/18 04:30:53;;;;;;;407.73;261.98;;;;;;;;;;4971768;28;20218;-51
2022/08/18 04:33:19;;;;;;;400.00;258.80;;;;;;;;;;4968701;28;20365;-50
2022/08/18 04:35:45;;;;;;;450.08;288.63;;;;;;;;;;4966174;28;20189;-49
2022/08/18 04:38:12;;;;;;;440.48;276.50;;;;;;;;;;4964945;28;20202;-49
2022/08/18 04:40:40;;;;;;;395.05;252.98;;;;;;;;;;4969766;28;20218;-51
2022/08/18 04:43:10;;;;;;;419.27;264.58;;;;;;;;;;4970101;28;20299;-50
2022/08/18 04:45:38;;;;;;;431.65;279.77;;;;;;;;;;4964234;28;20193;-50
2022/08/18 04:48:05;;;;;;;384.70;252.15;;;;;;;;;;4973613;28;20206;-50
2022/08/18 04:50:31;;;;;;;401.17;262.80;;;;;;;;;;4974267;28;20213;-51
2022/08/18 04:55:51;;;;;;;434.48;279.45;;;;;;;;;;4968869;28;20293;-51
2022/08/18 04:58:18;;;;;;;405.98;265.45;;;;;;;;;;4964035;28;20213;-51
2022/08/18 05:00:44;;;;;;;398.67;260.98;;;;;;;;;;4971451;28;20225;-50
2022/08/18 05:03:11;;;;;;;401.98;263.85;;;;;;;;;;4968944;28;20296;-49
2022/08/18 05:05:37;;;;;;;404.98;268.60;;;;;;;;;;4970883;28;20271;-50
2022/08/18 05:08:03;;;;;;;395.67;263.95;;;;;;;;;;4971373;28;20237;-49
2022/08/18 05:10:29;;;;;;;383.40;259.50;;;;;;;;;;4971496;28;20634;-51
2022/08/18 05:12:56;;;;;;;407.80;269.15;;;;;;;;;;4971676;28;20280;-52
2022/08/18 05:15:22;;;;;;;395.80;264.33;;;;;;;;;;4970127;28;20221;-51
2022/08/18 05:17:48;;;;;;;428.05;283.60;;;;;;;;;;4973351;28;20443;-53
2022/08/18 05:20:14;;;;;;;433.50;286.45;;;;;;;;;;4974455;28;20380;-51
2022/08/18 05:22:42;;;;;;;423.58;279.50;;;;;;;;;;4974930;28;20332;-52
2022/08/18 05:25:09;;;;;;;435.85;289.05;;;;;;;;;;4965103;28;20210;-52
2022/08/18 05:27:36;;;;;;;408.42;269.60;;;;;;;;;;4948033;28;20213;-51
2022/08/18 05:30:03;;;;;;;405.77;268.40;;;;;;;;;;4971576;28;20198;-52
2022/08/18 05:32:32;;;;;;;417.70;263.92;;;;;;;;;;4960934;28;20291;-52
2022/08/18 05:34:59;;;;;;;397.90;254.05;;;;;;;;;;4957165;28;20230;-53
2022/08/18 05:37:33;;;;;;;431.67;277.73;;;;;;;;;;4945871;28;20221;-54
2022/08/18 05:40:01;;;;;;;417.60;266.67;;;;;;;;;;4946197;28;20237;-53
2022/08/18 05:42:28;;;;;;;414.83;265.88;;;;;;;;;;4949479;28;20201;-52
2022/08/18 05:44:54;;;;;;;409.73;262.77;;;;;;;;;;4950728;28;20293;-54
2022/08/18 05:47:31;;;;;;;397.40;261.45;;;;;;;;;;4935549;28;20226;-52
2022/08/18 05:50:05;;;;;;;406.98;267.98;;;;;;;;;;4955424;28;20352;-53
2022/08/18 05:52:36;;;;;;;428.63;285.40;;;;;;;;;;4948599;28;20219;-53
2022/08/18 05:57:56;;;;;;;414.35;272.77;;;;;;;;;;4958343;28;20284;-53
2022/08/18 06:00:23;;;;;;;443.80;284.95;;;;;;;;;;4973085;28;20196;-53
2022/08/18 06:02:54;;;;;;;424.15;278.00;;;;;;;;;;4951581;28;20193;-52
2022/08/18 06:05:25;;;;;;;479.98;311.05;;;;;;;;;;4943430;28;20224;-54
2022/08/18 06:07:56;;;;;;;509.13;327.90;;;;;;;;;;4930749;28;20349;-54
2022/08/18 06:10:23;;;;;;;446.25;297.85;;;;;;;;;;4956269;28;20269;-56
2022/08/18 06:12:52;;;;;;;408.30;284.70;;;;;;;;;;4970873;28;20541;-51
2022/08/18 06:15:23;;;;;;;425.27;303.90;;;;;;;;;;4963041;28;20543;-52
2022/08/18 06:17:57;;;;;;;417.25;286.30;;;;;;;;;;4972117;28;20218;-49
2022/08/18 06:20:42;;;;;;;415.58;279.60;;;;;;;;;;4969286;28;21773;-48
2022/08/18 06:23:27;;;;;;;418.98;291.88;;;;;;;;;;4972466;28;20224;-51
2022/08/18 06:26:00;;;;;;;425.70;291.30;;;;;;;;;;4971239;28;20225;-49
2022/08/18 06:28:30;;;;;;;428.60;292.52;;;;;;;;;;4968508;28;20226;-49
2022/08/18 06:31:01;;;;;;;407.00;288.60;;;;;;;;;;4968067;28;20308;-50
2022/08/18 06:33:37;;;;;;;460.35;318.05;;;;;;;;;;4963242;28;20214;-48
2022/08/18 06:36:07;;;;;;;405.02;292.08;;;;;;;;;;4970341;28;20185;-49
2022/08/18 06:38:42;;;;;;;497.35;329.75;;;;;;;;;;4970200;28;20535;-51
2022/08/18 06:41:08;;;;;;;401.77;280.75;;;;;;;;;;4973548;28;20255;-51
2022/08/18 06:43:35;;;;;;;430.05;298.70;;;;;;;;;;4973935;28;20709;-50
2022/08/18 06:46:02;;;;;;;474.42;324.10;;;;;;;;;;4960441;28;20218;-50
2022/08/18 06:48:28;;;;;;;444.67;312.88;;;;;;;;;;4968561;28;20217;-48
2022/08/18 06:51:02;;;;;;;396.10;293.48;;;;;;;;;;4963650;28;20188;-49
2022/08/18 06:53:47;;;;;;;434.65;324.67;;;;;;;;;;4970043;28;20320;-49
2022/08/18 06:56:19;;;;;;;431.23;309.88;;;;;;;;;;4965903;28;20228;-49
2022/08/18 06:58:45;;;;;;;490.90;352.02;;;;;;;;;;4964671;28;20249;-49
2022/08/18 07:01:11;;;;;;;416.67;309.48;;;;;;;;;;4962886;28;20301;-51
2022/08/18 07:03:42;;;;;;;437.83;316.83;;;;;;;;;;4963691;28;20197;-51
2022/08/18 07:06:24;;;;;;;489.50;338.42;;;;;;;;;;4956891;28;20194;-52
2022/08/18 07:08:52;;;;;;;476.60;335.45;;;;;;;;;;4964394;28;21359;-50
2022/08/18 07:11:26;;;;;;;549.90;369.15;;;;;;;;;;4949780;28;20325;-51
2022/08/18 07:14:13;;;;;;;424.00;315.40;;;;;;;;;;4950671;28;20221;-49
2022/08/18 07:16:39;;;;;;;446.00;322.52;;;;;;;;;;4940520;28;20269;-49
2022/08/18 07:19:07;;;;;;;439.20;332.50;;;;;;;;;;4943137;28;20868;-49
2022/08/18 07:21:36;;;;;;;450.42;334.60;;;;;;;;;;4945393;28;20210;-53
2022/08/18 07:24:05;;;;;;;482.30;352.73;;;;;;;;;;4932583;28;20213;-50
2022/08/18 07:26:51;;;;;;;425.00;315.92;;;;;;;;;;4942161;28;20895;-51
2022/08/18 07:29:17;;;;;;;433.55;329.52;;;;;;;;;;4948066;28;20225;-50
2022/08/18 07:31:47;;;;;;;463.17;335.40;;;;;;;;;;4941730;28;20222;-50
2022/08/18 07:34:16;;;;;;;411.10;316.45;;;;;;;;;;4939482;28;20227;-49
2022/08/18 07:36:48;;;;;;;412.95;316.60;;;;;;;;;;4947798;28;20465;-51
2022/08/18 07:39:23;;;;;;;420.30;323.33;;;;;;;;;;4952990;28;20202;-51
2022/08/18 07:41:56;;;;;;;418.92;320.20;;;;;;;;;;4968821;28;20220;-50
2022/08/18 07:44:42;;;;;;;449.27;347.55;;;;;;;;;;4967664;28;20241;-50
2022/08/18 07:47:28;;;;;;;477.27;369.33;;;;;;;;;;4957598;28;20465;-50
2022/08/18 07:49:57;;;;;;;428.27;356.65;;;;;;;;;;4976940;28;20233;-51
2022/08/18 07:52:31;;;;;;;443.02;366.95;;;;;;;;;;4963611;28;20300;-49
2022/08/18 07:54:57;;;;;;;452.38;373.60;;;;;;;;;;4962899;28;20217;-48
2022/08/18 07:57:41;;;;;;;467.88;379.13;;;;;;;;;;4965980;28;20640;-49
2022/08/18 08:00:11;;;;;;;478.27;385.92;;;;;;;;;;4961496;28;20216;-51
2022/08/18 08:02:49;;;;;;;460.42;356.35;;;;;;;;;;4963189;28;20256;-50
2022/08/18 08:05:15;;;;;;;432.85;346.73;;;;;;;;;;4953679;28;20647;-50
2022/08/18 08:07:42;;;;;;;419.95;353.52;;;;;;;;;;4952214;28;20245;-50
2022/08/18 08:10:11;;;;;;;429.63;349.48;;;;;;;;;;4954069;28;20214;-50
2022/08/18 08:12:46;;;;;;;465.55;366.17;;;;;;;;;;4945334;28;20758;-51
2022/08/18 08:15:30;;;;;;;463.67;387.42;;;;;;;;;;4943489;28;20189;-50
2022/08/18 08:18:09;;;;;;;409.40;331.50;;;;;;;;;;4964198;28;20226;-50
2022/08/18 08:20:35;;;;;;;438.13;353.75;;;;;;;;;;4963713;28;20245;-49
2022/08/18 08:23:10;;;;;;;404.88;315.13;;;;;;;;;;5002712;23;20279;-50
2022/08/18 08:25:52;;;;;;;380.45;308.17;;;;;;;;;;5008878;28;20224;-49
2022/08/18 08:28:19;;;;;;;382.40;308.25;;;;;;;;;;5010750;28;20232;-49
2022/08/18 08:31:06;;;;;;;383.83;316.60;;;;;;;;;;5010300;28;20635;-49
2022/08/18 08:33:35;;;;;;;382.27;301.55;;;;;;;;;;5008259;28;20197;-49
2022/08/18 08:36:07;;;;;;;372.00;301.40;;;;;;;;;;5010074;28;20223;-49
2022/08/18 08:38:40;;;;;;;388.00;307.40;;;;;;;;;;5010085;28;20839;-49
2022/08/18 08:41:09;;;;;;;373.65;315.48;;;;;;;;;;5010489;28;20689;-49
2022/08/18 08:43:47;;;;;;;369.08;304.55;;;;;;;;;;5010437;28;20217;-49
2022/08/18 08:46:19;;;;;;;427.83;337.63;;;;;;;;;;5009908;28;20208;-49
2022/08/18 08:49:14;;;;;;;393.02;322.48;;;;;;;;;;5009939;28;20336;-49
2022/08/18 08:51:48;;;;;;;392.00;317.63;;;;;;;;;;5013392;28;20300;-49
2022/08/18 08:54:18;;;;;;;352.65;305.15;;;;;;;;;;5010571;28;20288;-49
2022/08/18 08:56:46;;;;;;;377.30;315.08;;;;;;;;;;5010651;28;20197;-49
2022/08/18 08:59:14;;;;;;;367.42;310.95;;;;;;;;;;5010038;28;20220;-49
2022/08/18 09:01:40;;;;;;;367.08;315.85;;;;;;;;;;5009755;28;20209;-49
2022/08/18 09:04:28;;;;;;;404.33;326.90;;;;;;;;;;5009513;28;20239;-49
2022/08/18 09:07:00;;;;;;;393.58;319.65;;;;;;;;;;5009344;28;20581;-49
2022/08/18 09:09:58;;;;;;;389.92;320.20;;;;;;;;;;5009568;28;20247;-49
2022/08/18 09:12:43;;;;;;;388.50;320.95;;;;;;;;;;5018821;28;20213;-49
2022/08/18 09:15:28;;;;;;;393.27;322.85;;;;;;;;;;5010376;28;20656;-49
2022/08/18 09:18:06;;;;;;;413.75;337.73;;;;;;;;;;4990189;28;20276;-49
2022/08/18 09:20:50;;;;;;;406.23;330.88;;;;;;;;;;4989502;28;20217;-49
2022/08/18 09:23:22;;;;;;;413.88;327.90;;;;;;;;;;4989128;28;20782;-49
2022/08/18 09:25:50;;;;;;;381.35;312.67;;;;;;;;;;4987084;28;20688;-49
2022/08/18 09:28:19;;;;;;;389.67;321.85;;;;;;;;;;4989022;28;20229;-49
2022/08/18 09:31:06;;;;;;;388.00;325.00;;;;;;;;;;4988665;28;20300;-49
2022/08/18 09:33:46;;;;;;;370.20;314.02;;;;;;;;;;4989609;28;20256;-49
2022/08/18 09:36:23;;;;;;;380.65;327.08;;;;;;;;;;5009043;28;20254;-49
2022/08/18 09:42:07;;;;;;;391.67;338.48;;;;;;;;;;5008550;28;20741;-49
2022/08/18 09:44:48;;;;;;;383.85;323.67;;;;;;;;;;5008596;28;20252;-51
2022/08/18 09:47:20;;;;;;;389.80;333.52;;;;;;;;;;5008742;28;20215;-51
2022/08/18 09:49:52;;;;;;;390.35;333.10;;;;;;;;;;5004793;28;20228;-51
2022/08/18 09:52:21;;;;;;;374.88;327.17;;;;;;;;;;5008629;28;20755;-50
2022/08/18 09:54:52;;;;;;;379.75;334.95;;;;;;;;;;5008560;28;20224;-51
2022/08/18 09:57:20;;;;;;;387.65;329.05;;;;;;;;;;5008789;28;20461;-50
2022/08/18 09:59:46;;;;;;;378.75;325.38;;;;;;;;;;5008922;28;20212;-51
2022/08/18 10:02:32;;;;;;;386.35;340.75;;;;;;;;;;5008282;28;20209;-50
2022/08/18 10:05:25;;;;;;;401.92;344.48;;;;;;;;;;5008492;28;20692;-50
2022/08/18 10:07:56;;;;;;;386.35;340.70;;;;;;;;;;5008438;28;20217;-51
2022/08/18 10:10:25;;;;;;;387.52;344.42;;;;;;;;;;5007300;28;20677;-52
2022/08/18 10:13:03;;;;;;;398.52;350.65;;;;;;;;;;5008441;28;20209;-52
2022/08/18 10:15:34;;;;;;;405.77;357.80;;;;;;;;;;5008643;28;20153;-52
2022/08/18 10:18:12;;;;;;;394.13;348.08;;;;;;;;;;5008918;28;20205;-51
2022/08/18 10:20:40;;;;;;;395.70;350.55;;;;;;;;;;5008627;28;20347;-52
2022/08/18 10:23:07;;;;;;;391.20;349.23;;;;;;;;;;5008279;28;20244;-51
2022/08/18 10:25:46;;;;;;;396.17;351.60;;;;;;;;;;5008337;28;20217;-52
2022/08/18 10:28:33;;;;;;;420.67;361.33;;;;;;;;;;4999700;28;20247;-49
2022/08/18 10:31:01;;;;;;;476.58;390.67;;;;;;;;;;4994703;28;20239;-49
2022/08/18 10:33:46;;;;;;;410.65;358.10;;;;;;;;;;4991859;28;20547;-49
2022/08/18 10:36:31;;;;;;;453.77;382.30;;;;;;;;;;4992208;28;20218;-49
2022/08/18 10:38:57;;;;;;;383.20;342.42;;;;;;;;;;4992967;28;20604;-52
2022/08/18 10:41:33;;;;;;;392.98;349.55;;;;;;;;;;4988637;28;20289;-52
2022/08/18 10:44:00;;;;;;;410.70;365.85;;;;;;;;;;4991949;28;20566;-52
2022/08/18 10:46:28;;;;;;;412.77;368.30;;;;;;;;;;4992444;28;20219;-52
2022/08/18 10:49:08;;;;;;;408.60;364.10;;;;;;;;;;4992431;28;20685;-52
2022/08/18 10:51:35;;;;;;;407.83;364.00;;;;;;;;;;4992618;28;20181;-52
2022/08/18 10:54:20;;;;;;;401.85;358.40;;;;;;;;;;4992677;28;20189;-52
2022/08/18 10:56:48;;;;;;;398.35;356.15;;;;;;;;;;4991387;28;20206;-52
2022/08/18 10:59:17;;;;;;;402.10;359.08;;;;;;;;;;4992027;28;20296;-52
2022/08/18 11:01:46;;;;;;;405.63;363.02;;;;;;;;;;4992594;28;20218;-52
2022/08/18 11:04:24;;;;;;;415.05;369.60;;;;;;;;;;4992084;28;20744;-52
2022/08/18 11:06:52;;;;;;;393.60;352.00;;;;;;;;;;4992400;28;20220;-52
2022/08/18 11:09:25;;;;;;;407.10;362.30;;;;;;;;;;4992027;28;20228;-52
2022/08/18 11:11:52;;;;;;;402.25;358.75;;;;;;;;;;4972679;28;20257;-52
2022/08/18 11:14:41;;;;;;;402.85;360.15;;;;;;;;;;4972815;28;20222;-52
2022/08/18 11:17:30;;;;;;;399.48;357.10;;;;;;;;;;4972778;28;20218;-52
2022/08/18 11:19:58;;;;;;;396.40;354.77;;;;;;;;;;4972699;28;20221;-52
2022/08/18 11:22:26;;;;;;;409.05;365.60;;;;;;;;;;4972526;28;20698;-52
2022/08/18 11:24:52;;;;;;;405.80;364.45;;;;;;;;;;4972918;28;20210;-52
2022/08/18 11:27:23;;;;;;;413.92;370.85;;;;;;;;;;4973361;28;20225;-52
2022/08/18 11:29:50;;;;;;;424.55;381.25;;;;;;;;;;4973061;28;20224;-52
2022/08/18 11:32:22;;;;;;;424.05;380.30;;;;;;;;;;4972887;28;20222;-52
2022/08/18 11:34:54;;;;;;;435.77;392.05;;;;;;;;;;4972777;28;20565;-52
2022/08/18 11:37:32;;;;;;;431.10;386.70;;;;;;;;;;4972810;28;20222;-52
2022/08/18 11:39:59;;;;;;;421.00;378.75;;;;;;;;;;4972355;28;20265;-53
2022/08/18 11:42:29;;;;;;;459.63;411.35;;;;;;;;;;4972736;28;20714;-52
2022/08/18 11:45:16;;;;;;;424.55;380.98;;;;;;;;;;4991159;28;20210;-50
2022/08/18 11:48:01;;;;;;;433.13;387.88;;;;;;;;;;4990931;28;20304;-50
2022/08/18 11:50:29;;;;;;;427.95;383.75;;;;;;;;;;4990733;28;20213;-50
2022/08/18 11:52:56;;;;;;;420.42;377.45;;;;;;;;;;4990710;28;20225;-50
2022/08/18 11:55:33;;;;;;;412.38;369.67;;;;;;;;;;4990883;28;20237;-50
2022/08/18 11:57:59;;;;;;;425.67;381.77;;;;;;;;;;4991260;28;20221;-50
2022/08/18 12:00:37;;;;;;;437.80;391.70;;;;;;;;;;4990651;28;20216;-50
2022/08/18 12:03:04;;;;;;;438.75;394.27;;;;;;;;;;4990096;28;20296;-50
2022/08/18 12:05:40;;;;;;;440.27;395.42;;;;;;;;;;4990535;28;20231;-50
2022/08/18 12:08:16;;;;;;;442.67;397.00;;;;;;;;;;4989194;28;20276;-50
2022/08/18 12:10:42;;;;;;;448.08;400.67;;;;;;;;;;4990459;28;20208;-50
2022/08/18 12:13:07;;;;;;;449.58;402.80;;;;;;;;;;4987703;28;20217;-50
2022/08/18 12:15:34;;;;;;;458.55;410.95;;;;;;;;;;4990220;28;20219;-50
2022/08/18 12:18:00;;;;;;;435.83;392.27;;;;;;;;;;4991053;28;20482;-51
2022/08/18 12:20:27;;;;;;;450.20;406.25;;;;;;;;;;4990621;28;20228;-51
2022/08/18 12:22:55;;;;;;;453.95;410.73;;;;;;;;;;4990310;28;20295;-50
2022/08/18 12:25:21;;;;;;;443.25;399.60;;;;;;;;;;4990231;28;20218;-51
2022/08/18 12:27:47;;;;;;;436.83;393.55;;;;;;;;;;4990320;28;20808;-51
2022/08/18 12:30:13;;;;;;;455.83;409.02;;;;;;;;;;4990684;28;20179;-51
2022/08/18 12:32:39;;;;;;;451.42;407.35;;;;;;;;;;4989846;28;20228;-50
2022/08/18 12:35:07;;;;;;;452.63;409.08;;;;;;;;;;4990095;28;20617;-51
2022/08/18 12:37:33;;;;;;;472.38;426.20;;;;;;;;;;4989952;28;20607;-50
2022/08/18 12:40:00;;;;;;;453.48;409.17;;;;;;;;;;4990751;28;20312;-50
2022/08/18 12:42:26;;;;;;;464.20;418.23;;;;;;;;;;4990348;28;20212;-50
2022/08/18 12:44:53;;;;;;;476.48;430.65;;;;;;;;;;4989490;28;20186;-50
2022/08/18 12:47:21;;;;;;;481.63;435.02;;;;;;;;;;4989832;28;20213;-50
2022/08/18 12:49:47;;;;;;;474.25;428.48;;;;;;;;;;4989461;28;20248;-50
2022/08/18 12:52:13;;;;;;;450.58;405.65;;;;;;;;;;4989590;28;20220;-50
2022/08/18 12:54:42;;;;;;;449.10;406.23;;;;;;;;;;4989633;28;20217;-50
2022/08/18 12:57:08;;;;;;;446.50;401.02;;;;;;;;;;4990086;28;20240;-50
2022/08/18 12:59:35;;;;;;;450.23;404.77;;;;;;;;;;4989735;28;20241;-50
2022/08/18 13:02:01;;;;;;;439.90;395.23;;;;;;;;;;4989539;28;20693;-50
2022/08/18 13:04:27;;;;;;;448.08;401.77;;;;;;;;;;4989083;28;20320;-50
2022/08/18 13:06:55;;;;;;;438.70;393.35;;;;;;;;;;4989199;28;20214;-50
2022/08/18 13:09:21;;;;;;;449.80;404.10;;;;;;;;;;4990240;28;20198;-50
2022/08/18 13:11:47;;;;;;;456.60;411.95;;;;;;;;;;4990130;28;20292;-51
2022/08/18 13:14:14;;;;;;;461.27;416.05;;;;;;;;;;4989815;28;20221;-50
2022/08/18 13:16:41;;;;;;;458.77;413.38;;;;;;;;;;4990285;28;20268;-50
2022/08/18 13:19:08;;;;;;;456.55;411.15;;;;;;;;;;4989696;28;20213;-51
2022/08/18 13:21:34;;;;;;;466.05;419.00;;;;;;;;;;4989684;28;20237;-51
2022/08/18 13:24:00;;;;;;;463.45;417.27;;;;;;;;;;4989265;28;20267;-51
2022/08/18 13:26:30;;;;;;;470.13;421.40;;;;;;;;;;4989307;28;20213;-51
2022/08/18 13:28:58;;;;;;;453.60;408.45;;;;;;;;;;4989694;28;20221;-51
2022/08/18 13:31:24;;;;;;;452.00;407.50;;;;;;;;;;4989598;28;20268;-51
2022/08/18 13:33:50;;;;;;;437.38;396.98;;;;;;;;;;4989770;28;20287;-51
2022/08/18 13:36:16;;;;;;;458.08;412.25;;;;;;;;;;4990113;28;20626;-51
2022/08/18 13:38:42;;;;;;;454.33;409.88;;;;;;;;;;4989032;28;20213;-51
2022/08/18 13:41:09;;;;;;;441.98;397.35;;;;;;;;;;4989059;28;20686;-50
2022/08/18 13:43:37;;;;;;;448.88;404.38;;;;;;;;;;4988772;28;20229;-50
2022/08/18 13:46:04;;;;;;;449.45;404.10;;;;;;;;;;4989181;28;20577;-51
2022/08/18 13:48:30;;;;;;;449.13;401.52;;;;;;;;;;4988618;28;20207;-50
2022/08/18 13:50:57;;;;;;;439.40;397.77;;;;;;;;;;4989420;28;20197;-50
2022/08/18 13:53:24;;;;;;;470.85;423.63;;;;;;;;;;4988560;28;20272;-51
2022/08/18 13:55:50;;;;;;;454.52;409.33;;;;;;;;;;4988565;28;20213;-50
2022/08/18 13:58:16;;;;;;;450.85;406.35;;;;;;;;;;4989030;28;20213;-50
2022/08/18 14:00:42;;;;;;;452.25;407.30;;;;;;;;;;4991254;28;20212;-52
2022/08/18 14:03:08;;;;;;;444.95;402.15;;;;;;;;;;5008595;28;20307;-52
2022/08/18 14:05:34;;;;;;;435.10;393.70;;;;;;;;;;5008396;28;20275;-52
2022/08/18 14:08:00;;;;;;;443.35;398.30;;;;;;;;;;5008325;28;20263;-52
2022/08/18 14:10:26;;;;;;;439.50;396.42;;;;;;;;;;5008394;28;20733;-52
2022/08/18 14:12:54;;;;;;;433.92;391.10;;;;;;;;;;5008322;28;20209;-52
2022/08/18 14:15:20;;;;;;;433.50;387.65;;;;;;;;;;5008200;28;20169;-52
2022/08/18 14:17:46;;;;;;;429.05;385.67;;;;;;;;;;5011691;28;20165;-52
2022/08/18 14:28:28;;;;;;;468.70;412.92;;;;;;;;;;4981182;28;20830;-55
2022/08/18 14:30:55;;;;;;;452.10;402.35;;;;;;;;;;4989635;28;20301;-55